Sardinia Regina — IBMS — position and weather

sailwx.info

Track history (hours):
 
Tides and Currents Weather Stations Pressure Air Temp Water Temp Dewpoint Dewpoint Depression Visibility Wind Speed Wind Dir Waves Ship Positions

Sardinia Regina

Last reported at 2017-Feb-22 08:33 UTC. Time now 2017-Feb-22 13:04 UTC.
Position N 43°13' E 010°03'.

Length 146 m; draft 5 m.

Type: Passenger vessel. MMSI: 247079000.

Date/timePositionNaut miles runAvg speedWind from/ knotsBaromVisibWave heightAir tempDewpointWater temp
2017-Feb-22 08:33N 43°13' E 010°03'1616.3
2017-Feb-22 07:33N 43°28' E 010°12'7 7.0
2017-Feb-22 06:33N 43°33' E 010°18'0 0.0
2017-Feb-22 05:33N 43°33' E 010°18'1010.4
2017-Feb-22 04:33N 43°24' E 010°11'1717.3
2017-Feb-22 03:33N 43°07' E 010°07'4 0.1
2017-Feb-20 21:33N 43°11' E 010°05'1717.4
2017-Feb-20 20:34N 43°27' E 010°12'7 7.1
2017-Feb-20 19:31N 43°33' E 010°18'0 0.0
2017-Feb-20 18:31N 43°33' E 010°18'0 0.0
2017-Feb-20 17:31N 43°33' E 010°18'0 0.0
2017-Feb-20 16:31N 43°33' E 010°18'0 0.0
2017-Feb-20 15:31N 43°33' E 010°18'0 0.0
2017-Feb-20 14:31N 43°33' E 010°18'0 0.0
2017-Feb-20 13:28N 43°33' E 010°18'0 0.0
2017-Feb-20 12:31N 43°33' E 010°18'0 0.0
2017-Feb-20 11:31N 43°33' E 010°18'0 0.0
2017-Feb-20 10:31N 43°33' E 010°18'0 0.0
2017-Feb-20 09:13N 43°33' E 010°18'0 0.0
2017-Feb-20 08:28N 43°33' E 010°18'0 0.0
2017-Feb-20 07:31N 43°33' E 010°18'0 0.0
2017-Feb-20 06:31N 43°33' E 010°18'0 0.0
2017-Feb-20 05:34N 43°33' E 010°18'1010.4
2017-Feb-20 04:34N 43°24' E 010°11'1616.2
2017-Feb-20 03:34N 43°08' E 010°06'8 0.3
2017-Feb-18 22:24N 43°00' E 010°03'1315.4
2017-Feb-18 21:33N 43°13' E 010°06'1515.3
2017-Feb-18 20:33N 43°28' E 010°12'7 7.0
2017-Feb-18 19:33N 43°33' E 010°18'0 0.0
2017-Feb-18 18:30N 43°33' E 010°18'0 0.0
2017-Feb-18 17:30N 43°33' E 010°18'7 7.1
2017-Feb-18 16:33N 43°28' E 010°13'1515.2
2017-Feb-18 15:33N 43°14' E 010°05'2015.9
2017-Feb-18 14:20N 42°56' E 009°53'4 0.8
2017-Feb-18 09:29N 42°59' E 009°57'1516.4
2017-Feb-18 08:33N 43°13' E 010°04'1616.1
2017-Feb-18 07:33N 43°28' E 010°11'7 7.0
2017-Feb-18 06:33N 43°33' E 010°18'0 0.0
2017-Feb-18 05:33N 43°33' E 010°18'9 8.7
2017-Feb-18 04:33N 43°26' E 010°13'1717.1
2017-Feb-18 03:33N 43°09' E 010°07'4 0.1
2017-Feb-16 22:31N 43°06' E 010°04'1717.4
2017-Feb-16 21:33N 43°22' E 010°10'1312.4
2017-Feb-16 20:33N 43°33' E 010°18'0 0.1
2017-Feb-16 19:24N 43°33' E 010°18'0 0.0
2017-Feb-16 18:24N 43°33' E 010°18'0 0.0
2017-Feb-16 17:33N 43°33' E 010°18'8 7.7
2017-Feb-16 16:33N 43°27' E 010°12'1616.2
2017-Feb-16 15:34N 43°12' E 010°04'2015.5
2017-Feb-16 14:17N 42°55' E 009°51'7 1.3
2017-Feb-16 09:24N 42°59' E 009°57'1416.4
2017-Feb-16 08:33N 43°12' E 010°03'1616.1
2017-Feb-16 07:34N 43°27' E 010°11'8 8.0
2017-Feb-16 06:32N 43°33' E 010°18'0 0.0
2017-Feb-16 05:32N 43°33' E 010°18'8 8.4
2017-Feb-16 04:33N 43°26' E 010°12'1717.4
2017-Feb-16 03:33N 43°09' E 010°08'2017.2
2017-Feb-16 02:24N 42°50' E 010°01'20 0.7
2017-Feb-14 21:34N 43°10' E 010°05'1717.3
2017-Feb-14 20:33N 43°27' E 010°11'8 8.2
2017-Feb-14 19:31N 43°33' E 010°18'0 0.0
2017-Feb-14 18:31N 43°33' E 010°18'0 0.0
2017-Feb-14 17:31N 43°33' E 010°18'6 6.3
2017-Feb-14 16:34N 43°28' E 010°13'1616.2
2017-Feb-14 15:33N 43°13' E 010°05'2115.7
2017-Feb-14 14:12N 42°55' E 009°51'3 0.8
2017-Feb-14 10:14N 42°53' E 009°47'1115.7
2017-Feb-14 09:33N 43°00' E 009°58'1615.9
2017-Feb-14 08:33N 43°15' E 010°05'1616.4
2017-Feb-14 07:34N 43°30' E 010°13'5 4.8
2017-Feb-14 06:33N 43°33' E 010°18'0 0.0
2017-Feb-14 05:33N 43°33' E 010°18'1010.4
2017-Feb-14 04:33N 43°24' E 010°12'1716.9
2017-Feb-14 03:33N 43°08' E 010°06'3 0.1
2017-Feb-12 21:33N 43°11' E 010°06'1717.3
2017-Feb-12 20:33N 43°27' E 010°12'7 7.4
2017-Feb-12 19:33N 43°33' E 010°18'0 0.0
2017-Feb-12 18:33N 43°33' E 010°18'0 0.3
2017-Feb-12 17:33N 43°33' E 010°18'1413.7
2017-Feb-12 16:33N 43°21' E 010°09'1716.8
2017-Feb-12 15:33N 43°05' E 010°01'15 3.4
2017-Feb-12 11:08N 42°54' E 009°48'1215.6
2017-Feb-12 10:23N 43°02' E 009°58'1416.2
2017-Feb-12 09:33N 43°15' E 010°05'1616.5
2017-Feb-12 08:33N 43°30' E 010°13'  
Track history (hours):
 
Tides and Currents Weather Stations Pressure Air Temp Water Temp Dewpoint Dewpoint Depression Visibility Wind Speed Wind Dir Waves Ship Positions

Sardinia Regina

Last reported at 2017-Feb-22 08:33 UTC. Time now 2017-Feb-22 13:04 UTC.
Position N 43°13' E 010°03'.

Length 146 m; draft 5 m.

Type: Passenger vessel. MMSI: 247079000.

Date/timePositionNaut miles runAvg speedWind from/ knotsBaromVisibWave heightAir tempDewpointWater temp
2017-Feb-22 08:33N 43°13' E 010°03'1616.3
2017-Feb-22 07:33N 43°28' E 010°12'7 7.0
2017-Feb-22 06:33N 43°33' E 010°18'0 0.0
2017-Feb-22 05:33N 43°33' E 010°18'1010.4
2017-Feb-22 04:33N 43°24' E 010°11'1717.3
2017-Feb-22 03:33N 43°07' E 010°07'4 0.1
2017-Feb-20 21:33N 43°11' E 010°05'1717.4
2017-Feb-20 20:34N 43°27' E 010°12'7 7.1
2017-Feb-20 19:31N 43°33' E 010°18'0 0.0
2017-Feb-20 18:31N 43°33' E 010°18'0 0.0
2017-Feb-20 17:31N 43°33' E 010°18'0 0.0
2017-Feb-20 16:31N 43°33' E 010°18'0 0.0
2017-Feb-20 15:31N 43°33' E 010°18'0 0.0
2017-Feb-20 14:31N 43°33' E 010°18'0 0.0
2017-Feb-20 13:28N 43°33' E 010°18'0 0.0
2017-Feb-20 12:31N 43°33' E 010°18'0 0.0
2017-Feb-20 11:31N 43°33' E 010°18'0 0.0
2017-Feb-20 10:31N 43°33' E 010°18'0 0.0
2017-Feb-20 09:13N 43°33' E 010°18'0 0.0
2017-Feb-20 08:28N 43°33' E 010°18'0 0.0
2017-Feb-20 07:31N 43°33' E 010°18'0 0.0
2017-Feb-20 06:31N 43°33' E 010°18'0 0.0
2017-Feb-20 05:34N 43°33' E 010°18'1010.4
2017-Feb-20 04:34N 43°24' E 010°11'1616.2
2017-Feb-20 03:34N 43°08' E 010°06'8 0.3
2017-Feb-18 22:24N 43°00' E 010°03'1315.4
2017-Feb-18 21:33N 43°13' E 010°06'1515.3
2017-Feb-18 20:33N 43°28' E 010°12'7 7.0
2017-Feb-18 19:33N 43°33' E 010°18'0 0.0
2017-Feb-18 18:30N 43°33' E 010°18'0 0.0
2017-Feb-18 17:30N 43°33' E 010°18'7 7.1
2017-Feb-18 16:33N 43°28' E 010°13'1515.2
2017-Feb-18 15:33N 43°14' E 010°05'2015.9
2017-Feb-18 14:20N 42°56' E 009°53'4 0.8
2017-Feb-18 09:29N 42°59' E 009°57'1516.4
2017-Feb-18 08:33N 43°13' E 010°04'1616.1
2017-Feb-18 07:33N 43°28' E 010°11'7 7.0
2017-Feb-18 06:33N 43°33' E 010°18'0 0.0
2017-Feb-18 05:33N 43°33' E 010°18'9 8.7
2017-Feb-18 04:33N 43°26' E 010°13'1717.1
2017-Feb-18 03:33N 43°09' E 010°07'4 0.1
2017-Feb-16 22:31N 43°06' E 010°04'1717.4
2017-Feb-16 21:33N 43°22' E 010°10'1312.4
2017-Feb-16 20:33N 43°33' E 010°18'0 0.1
2017-Feb-16 19:24N 43°33' E 010°18'0 0.0
2017-Feb-16 18:24N 43°33' E 010°18'0 0.0
2017-Feb-16 17:33N 43°33' E 010°18'8 7.7
2017-Feb-16 16:33N 43°27' E 010°12'1616.2
2017-Feb-16 15:34N 43°12' E 010°04'2015.5
2017-Feb-16 14:17N 42°55' E 009°51'7 1.3
2017-Feb-16 09:24N 42°59' E 009°57'1416.4
2017-Feb-16 08:33N 43°12' E 010°03'1616.1
2017-Feb-16 07:34N 43°27' E 010°11'8 8.0
2017-Feb-16 06:32N 43°33' E 010°18'0 0.0
2017-Feb-16 05:32N 43°33' E 010°18'8 8.4
2017-Feb-16 04:33N 43°26' E 010°12'1717.4
2017-Feb-16 03:33N 43°09' E 010°08'2017.2
2017-Feb-16 02:24N 42°50' E 010°01'20 0.7
2017-Feb-14 21:34N 43°10' E 010°05'1717.3
2017-Feb-14 20:33N 43°27' E 010°11'8 8.2
2017-Feb-14 19:31N 43°33' E 010°18'0 0.0
2017-Feb-14 18:31N 43°33' E 010°18'0 0.0
2017-Feb-14 17:31N 43°33' E 010°18'6 6.3
2017-Feb-14 16:34N 43°28' E 010°13'1616.2
2017-Feb-14 15:33N 43°13' E 010°05'2115.7
2017-Feb-14 14:12N 42°55' E 009°51'3 0.8
2017-Feb-14 10:14N 42°53' E 009°47'1115.7
2017-Feb-14 09:33N 43°00' E 009°58'1615.9
2017-Feb-14 08:33N 43°15' E 010°05'1616.4
2017-Feb-14 07:34N 43°30' E 010°13'5 4.8
2017-Feb-14 06:33N 43°33' E 010°18'0 0.0
2017-Feb-14 05:33N 43°33' E 010°18'1010.4
2017-Feb-14 04:33N 43°24' E 010°12'1716.9
2017-Feb-14 03:33N 43°08' E 010°06'3 0.1
2017-Feb-12 21:33N 43°11' E 010°06'1717.3
2017-Feb-12 20:33N 43°27' E 010°12'7 7.4
2017-Feb-12 19:33N 43°33' E 010°18'0 0.0
2017-Feb-12 18:33N 43°33' E 010°18'0 0.3
2017-Feb-12 17:33N 43°33' E 010°18'1413.7
2017-Feb-12 16:33N 43°21' E 010°09'1716.8
2017-Feb-12 15:33N 43°05' E 010°01'15 3.4
2017-Feb-12 11:08N 42°54' E 009°48'1215.6
2017-Feb-12 10:23N 43°02' E 009°58'1416.2
2017-Feb-12 09:33N 43°15' E 010°05'1616.5
2017-Feb-12 08:33N 43°30' E 010°13'  

Dump ship's entire track history